sensor_id;sensor_type;location;lat;lon;timestamp;P1;durP1;ratioP1;P2;durP2;ratioP2
51814;SDS011;37874;53.158;6.766;2023-04-03T00:01:29;1.02;;;0.50;;
51814;SDS011;37874;53.158;6.766;2023-04-03T00:03:55;1.48;;;0.45;;
51814;SDS011;37874;53.158;6.766;2023-04-03T00:06:21;0.88;;;0.30;;
51814;SDS011;37874;53.158;6.766;2023-04-03T00:08:47;1.20;;;0.40;;
51814;SDS011;37874;53.158;6.766;2023-04-03T00:11:13;1.50;;;0.50;;
51814;SDS011;37874;53.158;6.766;2023-04-03T00:13:39;0.88;;;0.38;;
51814;SDS011;37874;53.158;6.766;2023-04-03T00:16:06;0.85;;;0.40;;
51814;SDS011;37874;53.158;6.766;2023-04-03T00:18:32;1.05;;;0.47;;
51814;SDS011;37874;53.158;6.766;2023-04-03T00:20:58;1.13;;;0.35;;
51814;SDS011;37874;53.158;6.766;2023-04-03T00:23:23;1.13;;;0.40;;
51814;SDS011;37874;53.158;6.766;2023-04-03T00:25:49;1.30;;;0.40;;
51814;SDS011;37874;53.158;6.766;2023-04-03T00:28:16;0.80;;;0.40;;
51814;SDS011;37874;53.158;6.766;2023-04-03T00:30:41;0.75;;;0.35;;
51814;SDS011;37874;53.158;6.766;2023-04-03T00:33:07;0.90;;;0.30;;
51814;SDS011;37874;53.158;6.766;2023-04-03T00:35:35;1.30;;;0.40;;
51814;SDS011;37874;53.158;6.766;2023-04-03T00:38:00;0.73;;;0.35;;
51814;SDS011;37874;53.158;6.766;2023-04-03T00:40:26;0.93;;;0.35;;
51814;SDS011;37874;53.158;6.766;2023-04-03T00:42:56;0.68;;;0.40;;
51814;SDS011;37874;53.158;6.766;2023-04-03T00:45:34;1.10;;;0.40;;
51814;SDS011;37874;53.158;6.766;2023-04-03T00:48:03;1.10;;;0.50;;
51814;SDS011;37874;53.158;6.766;2023-04-03T00:50:31;0.55;;;0.30;;
51814;SDS011;37874;53.158;6.766;2023-04-03T00:53:00;1.00;;;0.43;;
51814;SDS011;37874;53.158;6.766;2023-04-03T00:55:26;0.80;;;0.40;;
51814;SDS011;37874;53.158;6.766;2023-04-03T00:57:53;1.42;;;0.40;;
51814;SDS011;37874;53.158;6.766;2023-04-03T01:00:21;1.42;;;0.30;;
51814;SDS011;37874;53.158;6.766;2023-04-03T01:02:49;1.13;;;0.40;;
51814;SDS011;37874;53.158;6.766;2023-04-03T01:05:16;0.90;;;0.30;;
51814;SDS011;37874;53.158;6.766;2023-04-03T01:07:42;1.65;;;0.50;;
51814;SDS011;37874;53.158;6.766;2023-04-03T01:10:11;1.08;;;0.40;;
51814;SDS011;37874;53.158;6.766;2023-04-03T01:12:40;1.10;;;0.40;;
51814;SDS011;37874;53.158;6.766;2023-04-03T01:15:09;1.33;;;0.47;;
51814;SDS011;37874;53.158;6.766;2023-04-03T01:17:41;1.50;;;0.50;;
51814;SDS011;37874;53.158;6.766;2023-04-03T01:25:44;1.83;;;0.50;;
51814;SDS011;37874;53.158;6.766;2023-04-03T01:28:18;1.40;;;0.40;;
51814;SDS011;37874;53.158;6.766;2023-04-03T01:30:56;1.42;;;0.40;;
51814;SDS011;37874;53.158;6.766;2023-04-03T01:33:39;1.08;;;0.40;;
51814;SDS011;37874;53.158;6.766;2023-04-03T01:36:06;1.10;;;0.40;;
51814;SDS011;37874;53.158;6.766;2023-04-03T01:38:32;0.98;;;0.40;;
51814;SDS011;37874;53.158;6.766;2023-04-03T01:40:58;1.30;;;0.60;;
51814;SDS011;37874;53.158;6.766;2023-04-03T01:43:24;1.73;;;0.40;;
51814;SDS011;37874;53.158;6.766;2023-04-03T01:45:49;2.53;;;0.40;;
51814;SDS011;37874;53.158;6.766;2023-04-03T01:48:15;1.23;;;0.50;;
51814;SDS011;37874;53.158;6.766;2023-04-03T01:50:41;1.58;;;0.55;;
51814;SDS011;37874;53.158;6.766;2023-04-03T01:53:08;0.65;;;0.30;;
51814;SDS011;37874;53.158;6.766;2023-04-03T01:55:34;0.93;;;0.50;;
51814;SDS011;37874;53.158;6.766;2023-04-03T01:57:59;1.23;;;0.47;;
51814;SDS011;37874;53.158;6.766;2023-04-03T02:00:25;1.92;;;0.50;;
51814;SDS011;37874;53.158;6.766;2023-04-03T02:02:51;1.92;;;0.50;;
51814;SDS011;37874;53.158;6.766;2023-04-03T02:05:17;1.50;;;0.50;;
51814;SDS011;37874;53.158;6.766;2023-04-03T02:07:43;0.82;;;0.40;;
51814;SDS011;37874;53.158;6.766;2023-04-03T02:10:09;1.00;;;0.47;;
51814;SDS011;37874;53.158;6.766;2023-04-03T02:12:35;1.70;;;0.63;;
51814;SDS011;37874;53.158;6.766;2023-04-03T02:15:01;1.45;;;0.40;;
51814;SDS011;37874;53.158;6.766;2023-04-03T02:17:26;0.82;;;0.40;;
51814;SDS011;37874;53.158;6.766;2023-04-03T02:19:52;0.55;;;0.20;;
51814;SDS011;37874;53.158;6.766;2023-04-03T02:22:17;0.75;;;0.30;;
51814;SDS011;37874;53.158;6.766;2023-04-03T02:24:44;1.17;;;0.40;;
51814;SDS011;37874;53.158;6.766;2023-04-03T02:27:09;1.67;;;0.40;;
51814;SDS011;37874;53.158;6.766;2023-04-03T02:29:35;1.10;;;0.40;;
51814;SDS011;37874;53.158;6.766;2023-04-03T02:32:01;2.05;;;0.35;;
51814;SDS011;37874;53.158;6.766;2023-04-03T02:34:26;1.48;;;0.50;;
51814;SDS011;37874;53.158;6.766;2023-04-03T02:36:52;1.33;;;0.50;;
51814;SDS011;37874;53.158;6.766;2023-04-03T02:39:17;1.15;;;0.35;;
51814;SDS011;37874;53.158;6.766;2023-04-03T02:41:43;1.15;;;0.50;;
51814;SDS011;37874;53.158;6.766;2023-04-03T02:44:09;0.88;;;0.40;;
51814;SDS011;37874;53.158;6.766;2023-04-03T02:46:35;2.35;;;0.80;;
51814;SDS011;37874;53.158;6.766;2023-04-03T02:49:01;2.05;;;0.60;;
51814;SDS011;37874;53.158;6.766;2023-04-03T02:51:27;0.93;;;0.52;;
51814;SDS011;37874;53.158;6.766;2023-04-03T02:53:58;1.67;;;0.50;;
51814;SDS011;37874;53.158;6.766;2023-04-03T02:56:24;1.45;;;0.50;;
51814;SDS011;37874;53.158;6.766;2023-04-03T02:58:51;1.83;;;0.50;;
51814;SDS011;37874;53.158;6.766;2023-04-03T03:01:17;1.95;;;0.80;;
51814;SDS011;37874;53.158;6.766;2023-04-03T03:03:43;1.77;;;0.60;;
51814;SDS011;37874;53.158;6.766;2023-04-03T03:06:10;1.75;;;0.70;;
51814;SDS011;37874;53.158;6.766;2023-04-03T03:08:38;1.63;;;0.60;;
51814;SDS011;37874;53.158;6.766;2023-04-03T03:11:04;1.55;;;0.60;;
51814;SDS011;37874;53.158;6.766;2023-04-03T03:13:30;1.63;;;0.55;;
51814;SDS011;37874;53.158;6.766;2023-04-03T03:15:56;1.65;;;0.50;;
51814;SDS011;37874;53.158;6.766;2023-04-03T03:18:22;1.10;;;0.40;;
51814;SDS011;37874;53.158;6.766;2023-04-03T03:20:51;1.50;;;0.50;;
51814;SDS011;37874;53.158;6.766;2023-04-03T03:23:18;1.05;;;0.50;;
51814;SDS011;37874;53.158;6.766;2023-04-03T03:25:44;1.30;;;0.60;;
51814;SDS011;37874;53.158;6.766;2023-04-03T03:28:10;1.50;;;0.60;;
51814;SDS011;37874;53.158;6.766;2023-04-03T03:30:36;0.90;;;0.40;;
51814;SDS011;37874;53.158;6.766;2023-04-03T03:33:02;0.88;;;0.40;;
51814;SDS011;37874;53.158;6.766;2023-04-03T03:35:28;0.88;;;0.38;;
51814;SDS011;37874;53.158;6.766;2023-04-03T03:37:53;1.17;;;0.47;;
51814;SDS011;37874;53.158;6.766;2023-04-03T03:40:19;2.60;;;0.75;;
51814;SDS011;37874;53.158;6.766;2023-04-03T03:42:45;1.20;;;0.50;;
51814;SDS011;37874;53.158;6.766;2023-04-03T03:45:10;2.17;;;0.50;;
51814;SDS011;37874;53.158;6.766;2023-04-03T03:47:36;1.50;;;0.55;;
51814;SDS011;37874;53.158;6.766;2023-04-03T03:50:02;0.93;;;0.60;;
51814;SDS011;37874;53.158;6.766;2023-04-03T03:52:28;2.20;;;0.50;;
51814;SDS011;37874;53.158;6.766;2023-04-03T03:54:55;1.60;;;0.57;;
51814;SDS011;37874;53.158;6.766;2023-04-03T03:57:21;0.90;;;0.47;;
51814;SDS011;37874;53.158;6.766;2023-04-03T03:59:46;1.77;;;0.63;;
51814;SDS011;37874;53.158;6.766;2023-04-03T04:02:13;1.73;;;0.52;;
51814;SDS011;37874;53.158;6.766;2023-04-03T04:04:39;1.65;;;0.50;;
51814;SDS011;37874;53.158;6.766;2023-04-03T04:07:05;1.30;;;0.57;;
51814;SDS011;37874;53.158;6.766;2023-04-03T04:09:31;1.90;;;0.50;;
51814;SDS011;37874;53.158;6.766;2023-04-03T04:11:56;1.10;;;0.47;;
51814;SDS011;37874;53.158;6.766;2023-04-03T04:14:22;2.10;;;0.50;;
51814;SDS011;37874;53.158;6.766;2023-04-03T04:16:47;1.25;;;0.38;;
51814;SDS011;37874;53.158;6.766;2023-04-03T04:19:13;2.53;;;0.57;;
51814;SDS011;37874;53.158;6.766;2023-04-03T04:21:39;1.48;;;0.60;;
51814;SDS011;37874;53.158;6.766;2023-04-03T04:24:06;1.50;;;0.60;;
51814;SDS011;37874;53.158;6.766;2023-04-03T04:26:32;1.10;;;0.50;;
51814;SDS011;37874;53.158;6.766;2023-04-03T04:28:58;2.03;;;0.60;;
51814;SDS011;37874;53.158;6.766;2023-04-03T04:31:24;1.73;;;0.70;;
51814;SDS011;37874;53.158;6.766;2023-04-03T04:33:49;1.38;;;0.40;;
51814;SDS011;37874;53.158;6.766;2023-04-03T04:36:15;1.55;;;0.50;;
51814;SDS011;37874;53.158;6.766;2023-04-03T04:38:41;1.52;;;0.60;;
51814;SDS011;37874;53.158;6.766;2023-04-03T04:41:07;1.88;;;0.70;;
51814;SDS011;37874;53.158;6.766;2023-04-03T04:43:33;1.23;;;0.60;;
51814;SDS011;37874;53.158;6.766;2023-04-03T04:46:06;1.08;;;0.50;;
51814;SDS011;37874;53.158;6.766;2023-04-03T04:48:33;1.65;;;0.60;;
51814;SDS011;37874;53.158;6.766;2023-04-03T04:50:59;1.38;;;0.60;;
51814;SDS011;37874;53.158;6.766;2023-04-03T04:53:25;1.52;;;0.65;;
51814;SDS011;37874;53.158;6.766;2023-04-03T04:55:51;2.83;;;0.70;;
51814;SDS011;37874;53.158;6.766;2023-04-03T04:58:17;1.20;;;0.43;;
51814;SDS011;37874;53.158;6.766;2023-04-03T05:00:43;2.13;;;0.70;;
51814;SDS011;37874;53.158;6.766;2023-04-03T05:03:09;2.58;;;0.70;;
51814;SDS011;37874;53.158;6.766;2023-04-03T05:05:35;1.75;;;0.70;;
51814;SDS011;37874;53.158;6.766;2023-04-03T05:08:02;3.63;;;0.80;;
51814;SDS011;37874;53.158;6.766;2023-04-03T05:10:28;2.65;;;0.82;;
51814;SDS011;37874;53.158;6.766;2023-04-03T05:12:54;2.72;;;0.70;;
51814;SDS011;37874;53.158;6.766;2023-04-03T05:15:19;1.63;;;0.60;;
51814;SDS011;37874;53.158;6.766;2023-04-03T05:17:45;2.08;;;0.60;;
51814;SDS011;37874;53.158;6.766;2023-04-03T05:20:11;2.97;;;0.70;;
51814;SDS011;37874;53.158;6.766;2023-04-03T05:22:37;2.35;;;0.90;;
51814;SDS011;37874;53.158;6.766;2023-04-03T05:25:03;4.63;;;0.80;;
51814;SDS011;37874;53.158;6.766;2023-04-03T05:27:29;7.05;;;0.77;;
51814;SDS011;37874;53.158;6.766;2023-04-03T05:29:55;3.17;;;0.80;;
51814;SDS011;37874;53.158;6.766;2023-04-03T05:32:21;1.83;;;0.57;;
51814;SDS011;37874;53.158;6.766;2023-04-03T05:34:47;1.83;;;0.85;;
51814;SDS011;37874;53.158;6.766;2023-04-03T05:37:13;2.90;;;0.88;;
51814;SDS011;37874;53.158;6.766;2023-04-03T05:39:39;2.33;;;0.90;;
51814;SDS011;37874;53.158;6.766;2023-04-03T05:42:06;1.60;;;0.65;;
51814;SDS011;37874;53.158;6.766;2023-04-03T05:44:31;3.08;;;0.90;;
51814;SDS011;37874;53.158;6.766;2023-04-03T05:46:57;2.65;;;0.88;;
51814;SDS011;37874;53.158;6.766;2023-04-03T05:49:23;14.30;;;1.55;;
51814;SDS011;37874;53.158;6.766;2023-04-03T05:51:48;3.08;;;1.00;;
51814;SDS011;37874;53.158;6.766;2023-04-03T05:54:18;3.10;;;1.05;;
51814;SDS011;37874;53.158;6.766;2023-04-03T05:56:48;2.85;;;0.95;;
51814;SDS011;37874;53.158;6.766;2023-04-03T05:59:15;2.65;;;0.93;;
51814;SDS011;37874;53.158;6.766;2023-04-03T06:01:41;3.55;;;1.15;;
51814;SDS011;37874;53.158;6.766;2023-04-03T06:04:07;2.83;;;0.90;;
51814;SDS011;37874;53.158;6.766;2023-04-03T06:06:53;2.08;;;0.73;;
51814;SDS011;37874;53.158;6.766;2023-04-03T06:09:21;2.13;;;0.90;;
51814;SDS011;37874;53.158;6.766;2023-04-03T06:11:50;2.47;;;0.90;;
51814;SDS011;37874;53.158;6.766;2023-04-03T06:14:17;3.13;;;0.70;;
51814;SDS011;37874;53.158;6.766;2023-04-03T06:16:42;3.13;;;0.68;;
51814;SDS011;37874;53.158;6.766;2023-04-03T06:19:09;1.88;;;0.73;;
51814;SDS011;37874;53.158;6.766;2023-04-03T06:21:35;1.67;;;0.60;;
51814;SDS011;37874;53.158;6.766;2023-04-03T06:24:02;2.88;;;0.68;;
51814;SDS011;37874;53.158;6.766;2023-04-03T06:26:28;2.00;;;0.80;;
51814;SDS011;37874;53.158;6.766;2023-04-03T06:28:54;2.22;;;0.70;;
51814;SDS011;37874;53.158;6.766;2023-04-03T06:31:19;2.10;;;0.75;;
51814;SDS011;37874;53.158;6.766;2023-04-03T06:33:45;4.20;;;0.70;;
51814;SDS011;37874;53.158;6.766;2023-04-03T06:36:11;1.70;;;0.68;;
51814;SDS011;37874;53.158;6.766;2023-04-03T06:38:37;1.90;;;0.80;;
51814;SDS011;37874;53.158;6.766;2023-04-03T06:41:03;2.05;;;0.70;;
51814;SDS011;37874;53.158;6.766;2023-04-03T06:43:28;2.90;;;0.90;;
51814;SDS011;37874;53.158;6.766;2023-04-03T06:45:56;2.28;;;0.80;;
51814;SDS011;37874;53.158;6.766;2023-04-03T06:48:22;3.08;;;0.70;;
51814;SDS011;37874;53.158;6.766;2023-04-03T06:50:48;2.15;;;0.77;;
51814;SDS011;37874;53.158;6.766;2023-04-03T06:53:13;2.63;;;0.82;;
51814;SDS011;37874;53.158;6.766;2023-04-03T06:55:39;1.55;;;0.63;;
51814;SDS011;37874;53.158;6.766;2023-04-03T06:58:06;3.42;;;1.00;;
51814;SDS011;37874;53.158;6.766;2023-04-03T07:00:32;2.45;;;0.90;;
51814;SDS011;37874;53.158;6.766;2023-04-03T07:02:57;1.55;;;0.80;;
51814;SDS011;37874;53.158;6.766;2023-04-03T07:05:23;2.78;;;0.80;;
51814;SDS011;37874;53.158;6.766;2023-04-03T07:07:49;1.70;;;0.80;;
51814;SDS011;37874;53.158;6.766;2023-04-03T07:10:16;1.95;;;0.80;;
51814;SDS011;37874;53.158;6.766;2023-04-03T07:12:42;2.78;;;0.90;;
51814;SDS011;37874;53.158;6.766;2023-04-03T07:15:07;2.72;;;0.80;;
51814;SDS011;37874;53.158;6.766;2023-04-03T07:17:34;2.05;;;0.68;;
51814;SDS011;37874;53.158;6.766;2023-04-03T07:20:00;3.63;;;0.90;;
51814;SDS011;37874;53.158;6.766;2023-04-03T07:22:26;1.65;;;0.70;;
51814;SDS011;37874;53.158;6.766;2023-04-03T07:24:52;2.70;;;0.90;;
51814;SDS011;37874;53.158;6.766;2023-04-03T07:27:17;1.92;;;0.90;;
51814;SDS011;37874;53.158;6.766;2023-04-03T07:29:43;1.83;;;0.70;;
51814;SDS011;37874;53.158;6.766;2023-04-03T07:32:09;3.83;;;0.95;;
51814;SDS011;37874;53.158;6.766;2023-04-03T07:34:36;3.50;;;0.80;;
51814;SDS011;37874;53.158;6.766;2023-04-03T07:37:02;2.40;;;0.80;;
51814;SDS011;37874;53.158;6.766;2023-04-03T07:39:28;3.30;;;1.30;;
51814;SDS011;37874;53.158;6.766;2023-04-03T07:41:54;2.20;;;0.80;;
51814;SDS011;37874;53.158;6.766;2023-04-03T07:44:23;3.78;;;0.98;;
51814;SDS011;37874;53.158;6.766;2023-04-03T07:46:49;1.75;;;0.68;;
51814;SDS011;37874;53.158;6.766;2023-04-03T07:49:15;5.10;;;0.63;;
51814;SDS011;37874;53.158;6.766;2023-04-03T07:51:43;2.13;;;0.70;;
51814;SDS011;37874;53.158;6.766;2023-04-03T07:54:09;2.17;;;0.90;;
51814;SDS011;37874;53.158;6.766;2023-04-03T07:56:34;1.17;;;0.63;;
51814;SDS011;37874;53.158;6.766;2023-04-03T07:59:00;2.30;;;0.85;;
51814;SDS011;37874;53.158;6.766;2023-04-03T08:01:26;2.22;;;0.80;;
51814;SDS011;37874;53.158;6.766;2023-04-03T08:03:51;2.80;;;0.90;;
51814;SDS011;37874;53.158;6.766;2023-04-03T08:06:17;2.92;;;0.90;;
51814;SDS011;37874;53.158;6.766;2023-04-03T08:08:43;2.05;;;0.80;;
51814;SDS011;37874;53.158;6.766;2023-04-03T08:11:09;4.03;;;1.05;;
51814;SDS011;37874;53.158;6.766;2023-04-03T08:13:35;2.53;;;0.95;;
51814;SDS011;37874;53.158;6.766;2023-04-03T08:16:08;2.22;;;0.70;;
51814;SDS011;37874;53.158;6.766;2023-04-03T08:18:36;2.58;;;1.00;;
51814;SDS011;37874;53.158;6.766;2023-04-03T08:21:04;1.77;;;0.80;;
51814;SDS011;37874;53.158;6.766;2023-04-03T08:23:31;3.47;;;0.80;;
51814;SDS011;37874;53.158;6.766;2023-04-03T08:25:57;2.03;;;0.75;;
51814;SDS011;37874;53.158;6.766;2023-04-03T08:28:22;3.53;;;0.80;;
51814;SDS011;37874;53.158;6.766;2023-04-03T08:30:48;2.72;;;0.98;;
51814;SDS011;37874;53.158;6.766;2023-04-03T08:33:13;2.45;;;0.80;;
51814;SDS011;37874;53.158;6.766;2023-04-03T08:35:40;3.55;;;0.93;;
51814;SDS011;37874;53.158;6.766;2023-04-03T08:38:07;2.95;;;0.98;;
51814;SDS011;37874;53.158;6.766;2023-04-03T08:40:33;2.20;;;0.93;;
51814;SDS011;37874;53.158;6.766;2023-04-03T08:50:46;2.25;;;0.80;;
51814;SDS011;37874;53.158;6.766;2023-04-03T08:53:16;2.80;;;0.90;;
51814;SDS011;37874;53.158;6.766;2023-04-03T08:55:46;2.78;;;0.98;;
51814;SDS011;37874;53.158;6.766;2023-04-03T09:03:40;1.60;;;0.63;;
51814;SDS011;37874;53.158;6.766;2023-04-03T09:06:07;4.78;;;0.80;;
51814;SDS011;37874;53.158;6.766;2023-04-03T09:14:26;2.45;;;0.88;;
51814;SDS011;37874;53.158;6.766;2023-04-03T09:22:07;3.60;;;0.93;;
51814;SDS011;37874;53.158;6.766;2023-04-03T09:24:43;2.95;;;0.85;;
51814;SDS011;37874;53.158;6.766;2023-04-03T09:27:11;3.05;;;0.93;;
51814;SDS011;37874;53.158;6.766;2023-04-03T09:29:39;3.63;;;1.00;;
51814;SDS011;37874;53.158;6.766;2023-04-03T09:35:02;2.65;;;0.90;;
51814;SDS011;37874;53.158;6.766;2023-04-03T09:37:43;2.25;;;1.00;;
51814;SDS011;37874;53.158;6.766;2023-04-03T09:42:52;2.47;;;0.80;;
51814;SDS011;37874;53.158;6.766;2023-04-03T09:45:27;2.25;;;0.65;;
51814;SDS011;37874;53.158;6.766;2023-04-03T09:53:32;2.17;;;0.63;;
51814;SDS011;37874;53.158;6.766;2023-04-03T09:56:18;2.13;;;0.70;;
51814;SDS011;37874;53.158;6.766;2023-04-03T10:04:13;2.38;;;0.60;;
51814;SDS011;37874;53.158;6.766;2023-04-03T10:14:35;1.88;;;0.70;;
51814;SDS011;37874;53.158;6.766;2023-04-03T10:17:13;2.08;;;0.60;;
51814;SDS011;37874;53.158;6.766;2023-04-03T10:28:39;1.75;;;0.65;;
51814;SDS011;37874;53.158;6.766;2023-04-03T10:34:01;1.48;;;0.60;;
51814;SDS011;37874;53.158;6.766;2023-04-03T10:36:34;2.35;;;0.70;;
51814;SDS011;37874;53.158;6.766;2023-04-03T10:39:15;2.75;;;0.70;;
51814;SDS011;37874;53.158;6.766;2023-04-03T10:42:20;2.50;;;0.93;;
51814;SDS011;37874;53.158;6.766;2023-04-03T10:44:52;1.67;;;0.50;;
51814;SDS011;37874;53.158;6.766;2023-04-03T10:47:49;2.72;;;0.60;;
51814;SDS011;37874;53.158;6.766;2023-04-03T10:50:38;1.70;;;0.70;;
51814;SDS011;37874;53.158;6.766;2023-04-03T10:53:22;1.48;;;0.50;;
51814;SDS011;37874;53.158;6.766;2023-04-03T10:56:11;1.48;;;0.65;;
51814;SDS011;37874;53.158;6.766;2023-04-03T10:58:56;2.30;;;1.08;;
51814;SDS011;37874;53.158;6.766;2023-04-03T11:01:33;2.40;;;1.20;;
51814;SDS011;37874;53.158;6.766;2023-04-03T11:04:03;2.92;;;1.25;;
51814;SDS011;37874;53.158;6.766;2023-04-03T11:06:35;2.78;;;1.55;;
51814;SDS011;37874;53.158;6.766;2023-04-03T11:09:24;3.70;;;1.58;;
51814;SDS011;37874;53.158;6.766;2023-04-03T11:14:40;3.13;;;1.80;;
51814;SDS011;37874;53.158;6.766;2023-04-03T11:22:41;2.78;;;1.60;;
51814;SDS011;37874;53.158;6.766;2023-04-03T11:27:45;3.08;;;1.70;;
51814;SDS011;37874;53.158;6.766;2023-04-03T11:30:20;3.80;;;1.63;;
51814;SDS011;37874;53.158;6.766;2023-04-03T11:35:30;3.45;;;1.70;;
51814;SDS011;37874;53.158;6.766;2023-04-03T11:37:57;3.40;;;1.70;;
51814;SDS011;37874;53.158;6.766;2023-04-03T11:40:28;2.67;;;1.45;;
51814;SDS011;37874;53.158;6.766;2023-04-03T11:53:42;3.53;;;1.40;;
51814;SDS011;37874;53.158;6.766;2023-04-03T11:56:27;2.30;;;1.38;;
51814;SDS011;37874;53.158;6.766;2023-04-03T12:01:56;3.25;;;1.40;;
51814;SDS011;37874;53.158;6.766;2023-04-03T12:04:24;2.70;;;1.35;;
51814;SDS011;37874;53.158;6.766;2023-04-03T12:06:53;2.63;;;1.30;;
51814;SDS011;37874;53.158;6.766;2023-04-03T12:09:35;2.35;;;1.30;;
51814;SDS011;37874;53.158;6.766;2023-04-03T12:12:24;2.03;;;1.08;;
51814;SDS011;37874;53.158;6.766;2023-04-03T12:18:30;2.90;;;1.20;;
51814;SDS011;37874;53.158;6.766;2023-04-03T12:21:06;2.78;;;1.50;;
51814;SDS011;37874;53.158;6.766;2023-04-03T12:23:33;2.00;;;1.00;;
51814;SDS011;37874;53.158;6.766;2023-04-03T12:26:05;3.13;;;1.23;;
51814;SDS011;37874;53.158;6.766;2023-04-03T12:28:46;2.78;;;1.30;;
51814;SDS011;37874;53.158;6.766;2023-04-03T12:31:15;2.15;;;1.10;;
51814;SDS011;37874;53.158;6.766;2023-04-03T12:36:30;2.88;;;1.20;;
51814;SDS011;37874;53.158;6.766;2023-04-03T12:39:16;2.75;;;1.33;;
51814;SDS011;37874;53.158;6.766;2023-04-03T12:42:20;3.42;;;1.27;;
51814;SDS011;37874;53.158;6.766;2023-04-03T12:45:16;2.72;;;1.00;;
51814;SDS011;37874;53.158;6.766;2023-04-03T12:47:44;3.65;;;1.00;;
51814;SDS011;37874;53.158;6.766;2023-04-03T12:50:27;2.90;;;0.90;;
51814;SDS011;37874;53.158;6.766;2023-04-03T12:53:02;1.70;;;0.82;;
51814;SDS011;37874;53.158;6.766;2023-04-03T12:55:29;2.00;;;1.02;;
51814;SDS011;37874;53.158;6.766;2023-04-03T12:57:55;2.28;;;0.90;;
51814;SDS011;37874;53.158;6.766;2023-04-03T13:02:55;2.83;;;1.00;;
51814;SDS011;37874;53.158;6.766;2023-04-03T13:05:22;2.15;;;0.73;;
51814;SDS011;37874;53.158;6.766;2023-04-03T13:07:49;1.77;;;0.80;;
51814;SDS011;37874;53.158;6.766;2023-04-03T13:10:19;1.65;;;0.80;;
51814;SDS011;37874;53.158;6.766;2023-04-03T13:12:46;2.50;;;0.90;;
51814;SDS011;37874;53.158;6.766;2023-04-03T13:15:18;2.15;;;0.80;;
51814;SDS011;37874;53.158;6.766;2023-04-03T13:17:45;3.03;;;0.90;;
51814;SDS011;37874;53.158;6.766;2023-04-03T13:20:18;1.70;;;0.88;;
51814;SDS011;37874;53.158;6.766;2023-04-03T13:22:52;2.15;;;0.80;;
51814;SDS011;37874;53.158;6.766;2023-04-03T13:25:22;2.40;;;1.10;;
51814;SDS011;37874;53.158;6.766;2023-04-03T13:27:50;1.92;;;0.68;;
51814;SDS011;37874;53.158;6.766;2023-04-03T13:30:24;2.40;;;0.80;;
51814;SDS011;37874;53.158;6.766;2023-04-03T13:32:53;2.13;;;0.82;;
51814;SDS011;37874;53.158;6.766;2023-04-03T13:35:28;1.60;;;0.70;;
51814;SDS011;37874;53.158;6.766;2023-04-03T13:40:50;2.08;;;0.68;;
51814;SDS011;37874;53.158;6.766;2023-04-03T13:43:19;2.42;;;0.65;;
51814;SDS011;37874;53.158;6.766;2023-04-03T13:45:54;2.35;;;0.80;;
51814;SDS011;37874;53.158;6.766;2023-04-03T13:53:43;2.33;;;0.80;;
51814;SDS011;37874;53.158;6.766;2023-04-03T13:56:52;1.95;;;0.77;;
51814;SDS011;37874;53.158;6.766;2023-04-03T14:04:11;1.60;;;0.60;;
51814;SDS011;37874;53.158;6.766;2023-04-03T14:06:56;2.80;;;1.13;;
51814;SDS011;37874;53.158;6.766;2023-04-03T14:09:24;1.48;;;0.60;;
51814;SDS011;37874;53.158;6.766;2023-04-03T14:11:59;2.05;;;0.50;;
51814;SDS011;37874;53.158;6.766;2023-04-03T14:14:30;1.90;;;0.70;;
51814;SDS011;37874;53.158;6.766;2023-04-03T14:17:00;1.23;;;0.50;;
51814;SDS011;37874;53.158;6.766;2023-04-03T14:19:33;1.33;;;0.60;;
51814;SDS011;37874;53.158;6.766;2023-04-03T14:22:01;1.13;;;0.60;;
51814;SDS011;37874;53.158;6.766;2023-04-03T14:24:37;1.90;;;0.50;;
51814;SDS011;37874;53.158;6.766;2023-04-03T14:27:05;2.08;;;0.70;;
51814;SDS011;37874;53.158;6.766;2023-04-03T14:29:40;0.80;;;0.40;;
51814;SDS011;37874;53.158;6.766;2023-04-03T14:32:06;1.58;;;0.60;;
51814;SDS011;37874;53.158;6.766;2023-04-03T14:34:31;2.10;;;0.57;;
51814;SDS011;37874;53.158;6.766;2023-04-03T14:36:57;1.70;;;0.77;;
51814;SDS011;37874;53.158;6.766;2023-04-03T14:39:23;0.88;;;0.40;;
51814;SDS011;37874;53.158;6.766;2023-04-03T14:41:48;1.10;;;0.35;;
51814;SDS011;37874;53.158;6.766;2023-04-03T14:44:14;1.40;;;0.50;;
51814;SDS011;37874;53.158;6.766;2023-04-03T14:46:41;1.42;;;0.40;;
51814;SDS011;37874;53.158;6.766;2023-04-03T14:49:15;1.00;;;0.45;;
51814;SDS011;37874;53.158;6.766;2023-04-03T14:51:46;1.00;;;0.50;;
51814;SDS011;37874;53.158;6.766;2023-04-03T14:54:16;1.35;;;0.50;;
51814;SDS011;37874;53.158;6.766;2023-04-03T14:56:46;1.60;;;0.43;;
51814;SDS011;37874;53.158;6.766;2023-04-03T14:59:12;1.60;;;0.60;;
51814;SDS011;37874;53.158;6.766;2023-04-03T15:01:40;1.75;;;0.40;;
51814;SDS011;37874;53.158;6.766;2023-04-03T15:04:13;2.28;;;0.38;;
51814;SDS011;37874;53.158;6.766;2023-04-03T15:06:43;1.85;;;0.50;;
51814;SDS011;37874;53.158;6.766;2023-04-03T15:09:28;1.27;;;0.50;;
51814;SDS011;37874;53.158;6.766;2023-04-03T15:11:54;2.13;;;0.70;;
51814;SDS011;37874;53.158;6.766;2023-04-03T15:14:20;2.45;;;0.40;;
51814;SDS011;37874;53.158;6.766;2023-04-03T15:16:46;2.92;;;0.50;;
51814;SDS011;37874;53.158;6.766;2023-04-03T15:19:12;2.00;;;0.60;;
51814;SDS011;37874;53.158;6.766;2023-04-03T15:21:38;2.22;;;0.60;;
51814;SDS011;37874;53.158;6.766;2023-04-03T15:24:03;1.90;;;0.57;;
51814;SDS011;37874;53.158;6.766;2023-04-03T15:26:29;4.22;;;0.80;;
51814;SDS011;37874;53.158;6.766;2023-04-03T15:28:56;4.90;;;1.10;;
51814;SDS011;37874;53.158;6.766;2023-04-03T15:31:22;2.72;;;0.63;;
51814;SDS011;37874;53.158;6.766;2023-04-03T15:33:47;6.28;;;1.02;;
51814;SDS011;37874;53.158;6.766;2023-04-03T15:36:13;4.75;;;0.80;;
51814;SDS011;37874;53.158;6.766;2023-04-03T15:38:38;8.95;;;1.10;;
51814;SDS011;37874;53.158;6.766;2023-04-03T15:41:04;4.05;;;1.08;;
51814;SDS011;37874;53.158;6.766;2023-04-03T15:43:30;3.88;;;1.00;;
51814;SDS011;37874;53.158;6.766;2023-04-03T15:45:58;3.88;;;1.30;;
51814;SDS011;37874;53.158;6.766;2023-04-03T15:48:25;4.55;;;1.27;;
51814;SDS011;37874;53.158;6.766;2023-04-03T15:50:52;4.72;;;1.17;;
51814;SDS011;37874;53.158;6.766;2023-04-03T15:53:18;4.60;;;1.30;;
51814;SDS011;37874;53.158;6.766;2023-04-03T15:55:44;5.40;;;1.40;;
51814;SDS011;37874;53.158;6.766;2023-04-03T15:58:09;4.57;;;1.80;;
51814;SDS011;37874;53.158;6.766;2023-04-03T16:00:36;6.25;;;1.77;;
51814;SDS011;37874;53.158;6.766;2023-04-03T16:03:06;4.88;;;1.73;;
51814;SDS011;37874;53.158;6.766;2023-04-03T16:05:35;7.15;;;2.40;;
51814;SDS011;37874;53.158;6.766;2023-04-03T16:08:02;6.80;;;1.90;;
51814;SDS011;37874;53.158;6.766;2023-04-03T16:10:28;8.63;;;2.60;;
51814;SDS011;37874;53.158;6.766;2023-04-03T16:12:55;6.70;;;2.40;;
51814;SDS011;37874;53.158;6.766;2023-04-03T16:15:20;7.63;;;2.53;;
51814;SDS011;37874;53.158;6.766;2023-04-03T16:17:47;8.75;;;3.03;;
51814;SDS011;37874;53.158;6.766;2023-04-03T16:20:13;11.98;;;3.45;;
51814;SDS011;37874;53.158;6.766;2023-04-03T16:22:39;8.68;;;2.70;;
51814;SDS011;37874;53.158;6.766;2023-04-03T16:25:06;7.13;;;2.70;;
51814;SDS011;37874;53.158;6.766;2023-04-03T16:27:33;6.22;;;2.22;;
51814;SDS011;37874;53.158;6.766;2023-04-03T16:29:59;6.53;;;2.63;;
51814;SDS011;37874;53.158;6.766;2023-04-03T16:32:25;7.20;;;2.67;;
51814;SDS011;37874;53.158;6.766;2023-04-03T16:34:54;7.10;;;3.03;;
51814;SDS011;37874;53.158;6.766;2023-04-03T16:37:19;6.28;;;2.80;;
51814;SDS011;37874;53.158;6.766;2023-04-03T16:39:45;5.43;;;2.33;;
51814;SDS011;37874;53.158;6.766;2023-04-03T16:42:11;6.70;;;2.63;;
51814;SDS011;37874;53.158;6.766;2023-04-03T16:44:36;7.55;;;2.85;;
51814;SDS011;37874;53.158;6.766;2023-04-03T16:47:02;7.30;;;2.40;;
51814;SDS011;37874;53.158;6.766;2023-04-03T16:49:28;8.27;;;2.92;;
51814;SDS011;37874;53.158;6.766;2023-04-03T16:51:58;7.07;;;2.33;;